Time;durP1;ratioP1;P1;durP2;ratioP2;P2;SDS_P1;SDS_P2;PMS_P1;PMS_P2;Temp;Humidity;BMP_temperature;BMP_pressure;BME280_temperature;BME280_humidity;BME280_pressure;Samples;Min_cycle;Max_cycle;Signal;HPM_P1;HPM_P2
2021/01/14 00:00:24;;;;;;;57.78;35.00;;;1.30;90.80;;;;;;5067952;28;20036;-72
2021/01/14 00:02:50;;;;;;;59.38;35.85;;;1.20;91.00;;;;;;5063321;28;20366;-72
2021/01/14 00:05:16;;;;;;;59.22;34.55;;;1.20;91.10;;;;;;5101472;28;20040;-70
2021/01/14 00:07:42;;;;;;;64.50;38.60;;;1.10;91.40;;;;;;5068720;28;20029;-73
2021/01/14 00:10:10;;;;;;;64.47;37.72;;;1.20;91.30;;;;;;5070036;28;20119;-74
2021/01/14 00:12:36;;;;;;;62.22;38.72;;;1.20;91.10;;;;;;5068312;28;20047;-70
2021/01/14 00:15:04;;;;;;;68.07;39.10;;;1.10;91.40;;;;;;5069153;28;20031;-72
2021/01/14 00:17:32;;;;;;;61.55;33.55;;;1.10;91.50;;;;;;5069702;28;20107;-73
2021/01/14 00:19:59;;;;;;;72.25;39.47;;;1.10;91.40;;;;;;5071307;28;20025;-74
2021/01/14 00:22:24;;;;;;;62.08;37.78;;;1.10;91.10;;;;;;5070520;28;20031;-74
2021/01/14 00:24:50;;;;;;;66.90;38.08;;;1.10;91.30;;;;;;5073027;28;20028;-72
2021/01/14 00:27:16;;;;;;;73.38;37.28;;;1.20;91.10;;;;;;5071388;28;20133;-72
2021/01/14 00:29:42;;;;;;;69.82;37.88;;;1.10;91.20;;;;;;5072477;28;20169;-74
2021/01/14 00:32:10;;;;;;;64.03;36.70;;;1.20;91.30;;;;;;5071543;28;20048;-71
2021/01/14 00:34:37;;;;;;;57.70;34.72;;;1.10;91.20;;;;;;5070444;28;20025;-73
2021/01/14 00:39:52;;;;;;;57.75;35.53;;;1.10;91.30;;;;;;5074411;28;20059;-72
2021/01/14 00:42:18;;;;;;;64.45;38.90;;;1.20;91.40;;;;;;5068434;28;20470;-73
2021/01/14 00:44:44;;;;;;;68.22;40.20;;;1.10;91.20;;;;;;5071682;28;20025;-72
2021/01/14 00:47:12;;;;;;;68.72;38.03;;;1.10;91.40;;;;;;5070934;28;20485;-73
2021/01/14 00:49:41;;;;;;;70.63;40.92;;;1.10;91.30;;;;;;5070919;28;20069;-72
2021/01/14 00:52:09;;;;;;;76.38;43.55;;;1.20;91.40;;;;;;5071021;28;20119;-73
2021/01/14 00:54:36;;;;;;;89.30;47.83;;;1.20;91.30;;;;;;5072750;28;20035;-72
2021/01/14 00:57:02;;;;;;;95.18;51.30;;;1.20;91.40;;;;;;5071620;28;20043;-71
2021/01/14 00:59:28;;;;;;;92.63;52.10;;;1.20;91.40;;;;;;5071006;28;20028;-74
2021/01/14 01:01:54;;;;;;;91.43;51.17;;;1.20;91.60;;;;;;5071554;28;20040;-72
2021/01/14 01:04:19;;;;;;;99.18;52.53;;;1.20;91.80;;;;;;5070387;28;21035;-71
2021/01/14 01:06:49;;;;;;;102.90;52.85;;;1.30;91.50;;;;;;5073014;28;20036;-71
2021/01/14 01:09:15;;;;;;;93.28;50.50;;;1.40;90.90;;;;;;5086628;28;20039;-73
2021/01/14 01:11:40;;;;;;;88.65;50.13;;;1.40;91.20;;;;;;5071493;28;20047;-73
2021/01/14 01:14:06;;;;;;;90.20;49.58;;;1.40;91.30;;;;;;5071663;28;20024;-74
2021/01/14 01:16:32;;;;;;;97.07;51.45;;;1.40;91.30;;;;;;5070134;28;20558;-72
2021/01/14 01:18:58;;;;;;;90.63;49.35;;;1.40;91.30;;;;;;5069960;28;20116;-74
2021/01/14 01:21:24;;;;;;;90.20;49.85;;;1.30;91.10;;;;;;5071838;28;20037;-73
2021/01/14 01:23:50;;;;;;;85.07;49.25;;;1.50;91.30;;;;;;5073208;28;20105;-72
2021/01/14 01:26:17;;;;;;;96.68;50.67;;;1.50;91.00;;;;;;5070802;28;20465;-70
2021/01/14 01:28:44;;;;;;;93.65;49.35;;;1.50;91.10;;;;;;5070485;28;20021;-74
2021/01/14 01:31:11;;;;;;;91.20;49.78;;;1.40;91.20;;;;;;5071351;28;20050;-73
2021/01/14 01:33:37;;;;;;;90.88;52.03;;;1.40;91.40;;;;;;5073231;28;20071;-73
2021/01/14 01:36:04;;;;;;;93.80;51.33;;;1.30;91.20;;;;;;5071764;28;20024;-73
2021/01/14 01:38:30;;;;;;;87.60;49.15;;;1.30;91.40;;;;;;5070217;28;20616;-71
2021/01/14 01:40:57;;;;;;;86.75;50.20;;;1.20;91.60;;;;;;5069874;28;20103;-73
2021/01/14 01:43:24;;;;;;;98.97;51.55;;;1.20;91.70;;;;;;5071400;28;20405;-74
2021/01/14 01:45:50;;;;;;;85.05;47.53;;;1.20;91.60;;;;;;5073182;28;20032;-72
2021/01/14 01:48:18;;;;;;;90.38;48.30;;;1.20;91.80;;;;;;5070137;28;20056;-72
2021/01/14 01:50:44;;;;;;;88.78;47.63;;;1.10;91.60;;;;;;5070512;28;20021;-72
2021/01/14 01:53:11;;;;;;;90.95;50.08;;;1.20;91.70;;;;;;5069712;28;20044;-71
2021/01/14 01:55:38;;;;;;;92.03;52.30;;;1.20;91.40;;;;;;5070455;28;20058;-72
2021/01/14 01:58:05;;;;;;;81.82;47.58;;;1.20;91.50;;;;;;5071532;28;20055;-73
2021/01/14 02:00:32;;;;;;;85.35;48.00;;;1.10;91.40;;;;;;5071091;28;20021;-72
2021/01/14 02:02:57;;;;;;;84.38;48.13;;;1.10;91.60;;;;;;5071072;28;20028;-72
2021/01/14 02:05:23;;;;;;;76.68;45.88;;;1.10;91.60;;;;;;5069605;28;20104;-74
2021/01/14 02:07:49;;;;;;;84.03;48.03;;;1.10;91.60;;;;;;5069944;28;20025;-74
2021/01/14 02:10:24;;;;;;;88.10;48.80;;;1.10;91.50;;;;;;5070814;28;20070;-72
2021/01/14 02:13:49;;;;;;;85.18;47.38;;;1.10;91.40;;;;;;5071941;28;20040;-73
2021/01/14 02:16:15;;;;;;;83.97;47.45;;;1.10;91.50;;;;;;5047745;28;20047;-73
2021/01/14 02:18:44;;;;;;;89.25;49.85;;;1.10;91.30;;;;;;5050612;28;20028;-71
2021/01/14 02:21:15;;;;;;;86.40;48.72;;;1.10;91.20;;;;;;5049266;28;20470;-73
2021/01/14 02:24:11;;;;;;;90.78;47.40;;;1.00;91.20;;;;;;5050041;28;20061;-73
2021/01/14 02:26:38;;;;;;;84.72;45.45;;;1.00;91.30;;;;;;5048663;28;20028;-74
2021/01/14 02:29:05;;;;;;;85.30;47.03;;;0.90;91.50;;;;;;5048029;28;20025;-73
2021/01/14 02:31:31;;;;;;;85.25;48.40;;;0.90;91.70;;;;;;5048098;28;20036;-73
2021/01/14 02:33:58;;;;;;;80.72;45.70;;;0.80;91.90;;;;;;5051694;28;20469;-71
2021/01/14 02:36:25;;;;;;;82.53;44.65;;;0.80;92.10;;;;;;5049846;28;20108;-74
2021/01/14 02:38:52;;;;;;;74.70;43.72;;;0.90;92.20;;;;;;5048085;28;20036;-74
2021/01/14 02:41:19;;;;;;;86.95;45.65;;;1.00;92.20;;;;;;5031897;28;20115;-73
2021/01/14 02:43:45;;;;;;;83.28;48.10;;;0.90;91.70;;;;;;5046727;28;20029;-74
2021/01/14 02:46:11;;;;;;;76.00;43.80;;;0.90;91.70;;;;;;5049192;28;20040;-74
2021/01/14 02:49:06;;;;;;;76.03;44.13;;;0.90;91.90;;;;;;5070839;28;20024;-73
2021/01/14 02:51:49;;;;;;;74.35;43.33;;;1.00;91.70;;;;;;5077612;28;20043;-73
2021/01/14 02:54:17;;;;;;;80.35;45.70;;;1.00;91.80;;;;;;5067470;28;20060;-73
2021/01/14 02:56:50;;;;;;;89.65;45.95;;;1.00;91.70;;;;;;5067973;28;20485;-74
2021/01/14 02:59:16;;;;;;;76.70;42.55;;;1.00;91.60;;;;;;5067510;28;20107;-72
2021/01/14 03:01:44;;;;;;;70.13;39.97;;;1.00;91.70;;;;;;5066687;28;20107;-74
2021/01/14 03:04:10;;;;;;;75.70;41.95;;;1.00;91.50;;;;;;5070939;28;20036;-74
2021/01/14 03:06:36;;;;;;;78.85;46.15;;;1.00;91.40;;;;;;5070723;28;20040;-73
2021/01/14 03:09:03;;;;;;;73.43;43.50;;;1.00;91.40;;;;;;5070226;28;20024;-74
2021/01/14 03:11:33;;;;;;;73.40;43.13;;;1.00;91.50;;;;;;5067545;28;20029;-74
2021/01/14 03:14:00;;;;;;;76.60;43.55;;;1.00;91.50;;;;;;5063716;28;20028;-73
2021/01/14 03:16:26;;;;;;;75.53;42.30;;;0.90;91.50;;;;;;5069705;28;20063;-73
2021/01/14 03:18:54;;;;;;;80.05;43.33;;;1.00;91.60;;;;;;5071919;28;20021;-73
2021/01/14 03:21:24;;;;;;;77.53;42.35;;;0.90;91.40;;;;;;5069986;28;20098;-73
2021/01/14 03:23:51;;;;;;;77.63;42.30;;;0.90;91.40;;;;;;5065627;28;20686;-73
2021/01/14 03:26:18;;;;;;;72.70;41.60;;;0.90;91.50;;;;;;5069745;28;20036;-73
2021/01/14 03:28:44;;;;;;;72.97;40.50;;;0.90;91.50;;;;;;5070018;28;20393;-73
2021/01/14 03:31:11;;;;;;;76.35;42.97;;;0.90;91.60;;;;;;5070410;28;20039;-72
2021/01/14 03:33:37;;;;;;;71.43;41.38;;;0.90;91.30;;;;;;5069301;28;20040;-73
2021/01/14 03:36:05;;;;;;;75.78;43.53;;;0.90;91.20;;;;;;5067387;28;20020;-73
2021/01/14 03:38:31;;;;;;;69.80;41.50;;;0.90;91.10;;;;;;5069214;28;20032;-73
2021/01/14 03:40:58;;;;;;;73.65;40.95;;;0.80;91.20;;;;;;5069473;28;20028;-73
2021/01/14 03:43:24;;;;;;;76.10;42.83;;;0.90;91.40;;;;;;5069751;28;20100;-74
2021/01/14 03:45:50;;;;;;;72.28;39.47;;;0.80;91.30;;;;;;5071881;28;20108;-72
2021/01/14 03:48:15;;;;;;;78.97;45.67;;;0.80;91.70;;;;;;5070115;28;20427;-72
2021/01/14 03:50:42;;;;;;;72.80;40.92;;;0.70;91.50;;;;;;5072444;28;20020;-72
2021/01/14 03:53:08;;;;;;;77.00;40.67;;;0.70;91.60;;;;;;5072766;28;20398;-72
2021/01/14 03:55:33;;;;;;;70.47;38.38;;;0.70;91.90;;;;;;5073142;28;20037;-72
2021/01/14 03:57:59;;;;;;;66.60;41.33;;;0.80;91.70;;;;;;5075217;28;20127;-74
2021/01/14 04:00:25;;;;;;;74.90;42.47;;;0.80;91.60;;;;;;5073371;28;20113;-74
2021/01/14 04:02:51;;;;;;;74.82;41.75;;;0.90;91.50;;;;;;5073291;28;20033;-72
2021/01/14 04:05:17;;;;;;;66.88;38.90;;;0.80;91.30;;;;;;5074199;28;20039;-72
2021/01/14 04:07:43;;;;;;;67.38;39.67;;;0.80;91.20;;;;;;5073130;28;20032;-73
2021/01/14 04:10:09;;;;;;;72.30;39.72;;;0.80;91.40;;;;;;5073749;28;20498;-72
2021/01/14 04:12:35;;;;;;;75.38;41.05;;;0.80;91.10;;;;;;5074817;28;20059;-74
2021/01/14 04:15:00;;;;;;;72.15;39.50;;;0.80;91.20;;;;;;5072032;28;20490;-74
2021/01/14 04:17:26;;;;;;;66.35;38.10;;;0.80;91.40;;;;;;5072745;28;20473;-73
2021/01/14 04:19:53;;;;;;;76.78;40.58;;;0.80;91.30;;;;;;5072656;28;20025;-73
2021/01/14 04:22:18;;;;;;;73.50;40.33;;;0.80;91.20;;;;;;5072895;28;20055;-73
2021/01/14 04:24:44;;;;;;;67.35;37.80;;;0.90;91.00;;;;;;5075424;28;20389;-73
2021/01/14 04:27:10;;;;;;;64.50;38.25;;;0.90;91.00;;;;;;5072798;28;20071;-74
2021/01/14 04:29:36;;;;;;;71.53;40.45;;;0.90;90.90;;;;;;5071755;28;20128;-74
2021/01/14 04:32:02;;;;;;;67.97;39.47;;;1.00;90.80;;;;;;5072405;28;20497;-74
2021/01/14 04:34:28;;;;;;;68.85;39.05;;;0.90;91.10;;;;;;5072960;28;20091;-74
2021/01/14 04:37:00;;;;;;;77.28;42.58;;;0.90;91.10;;;;;;5074091;28;20611;-71
2021/01/14 04:39:27;;;;;;;102.00;51.63;;;0.90;90.90;;;;;;5073550;28;20072;-71
2021/01/14 04:41:58;;;;;;;105.18;54.17;;;0.90;91.10;;;;;;5073100;28;20064;-71
2021/01/14 04:44:27;;;;;;;99.13;51.88;;;0.80;91.40;;;;;;5072048;28;20020;-73
2021/01/14 04:47:14;;;;;;;89.78;47.78;;;0.80;91.60;;;;;;5072986;28;20074;-73
2021/01/14 04:49:41;;;;;;;85.10;45.85;;;0.90;91.60;;;;;;5070782;28;20036;-72
2021/01/14 04:52:18;;;;;;;96.05;50.58;;;0.90;91.60;;;;;;5073409;28;20170;-73
2021/01/14 04:54:44;;;;;;;88.72;45.60;;;0.90;91.70;;;;;;5073777;28;20029;-73
2021/01/14 04:57:19;;;;;;;90.13;49.75;;;0.90;91.80;;;;;;5072793;28;20032;-74
2021/01/14 04:59:53;;;;;;;97.93;49.92;;;1.00;91.50;;;;;;5070920;28;20032;-74
2021/01/14 05:02:21;;;;;;;88.43;47.47;;;1.00;91.60;;;;;;5072164;28;20063;-73
2021/01/14 05:04:52;;;;;;;106.13;50.55;;;1.10;91.80;;;;;;5071122;28;20024;-73
2021/01/14 05:07:32;;;;;;;92.00;50.03;;;1.10;91.50;;;;;;5072445;28;28147;-73
2021/01/14 05:10:04;;;;;;;91.97;48.35;;;1.00;91.50;;;;;;5071324;28;20374;-72
2021/01/14 05:12:32;;;;;;;91.65;49.25;;;1.00;92.00;;;;;;5074114;28;20041;-73
2021/01/14 05:14:59;;;;;;;90.95;48.83;;;1.10;91.90;;;;;;5070332;28;20032;-72
2021/01/14 05:17:28;;;;;;;87.10;48.05;;;1.10;91.90;;;;;;5071551;28;20032;-73
2021/01/14 05:19:55;;;;;;;85.95;47.22;;;1.10;91.70;;;;;;5071087;28;20028;-73
2021/01/14 05:22:25;;;;;;;84.10;45.67;;;1.20;91.80;;;;;;5070556;28;20386;-73
2021/01/14 05:25:06;;;;;;;87.00;46.75;;;1.10;91.90;;;;;;5073652;28;20103;-72
2021/01/14 05:27:31;;;;;;;93.88;46.45;;;1.20;91.60;;;;;;5105012;28;20020;-72
2021/01/14 05:30:06;;;;;;;79.80;45.53;;;1.20;91.50;;;;;;5072040;28;20086;-72
2021/01/14 05:32:39;;;;;;;82.13;45.53;;;1.20;91.90;;;;;;5070408;28;20489;-72
2021/01/14 05:35:07;;;;;;;84.53;45.28;;;1.10;91.70;;;;;;5071879;28;20362;-71
2021/01/14 05:37:43;;;;;;;86.90;48.92;;;1.20;91.80;;;;;;5072319;28;20025;-72
2021/01/14 05:40:21;;;;;;;80.13;45.20;;;1.00;92.00;;;;;;5072944;28;20031;-72
2021/01/14 05:43:00;;;;;;;83.85;43.05;;;1.00;92.20;;;;;;5088971;28;20043;-74
2021/01/14 05:45:25;;;;;;;78.50;43.10;;;1.00;92.10;;;;;;5071616;28;20069;-72
2021/01/14 05:48:05;;;;;;;78.95;41.22;;;1.00;92.00;;;;;;5065829;28;20066;-72
2021/01/14 05:50:40;;;;;;;80.25;43.17;;;1.10;92.20;;;;;;5070579;28;20384;-72
2021/01/14 05:53:16;;;;;;;78.38;42.13;;;1.10;92.20;;;;;;5071468;28;20486;-73
2021/01/14 05:55:43;;;;;;;75.28;41.13;;;1.00;92.00;;;;;;5071490;28;20105;-73
2021/01/14 05:58:16;;;;;;;76.70;40.80;;;1.00;92.20;;;;;;5071551;28;20083;-72
2021/01/14 06:00:44;;;;;;;75.53;39.30;;;1.00;92.40;;;;;;5072743;28;20044;-73
2021/01/14 06:03:28;;;;;;;71.10;39.22;;;1.00;92.10;;;;;;5069451;28;20036;-73
2021/01/14 06:05:55;;;;;;;73.90;40.20;;;1.00;92.10;;;;;;5067354;28;20024;-73
2021/01/14 06:08:26;;;;;;;72.20;40.50;;;1.00;92.00;;;;;;5071316;28;20028;-74
2021/01/14 06:10:53;;;;;;;70.32;40.35;;;0.90;92.20;;;;;;5062935;28;20497;-74
2021/01/14 06:13:36;;;;;;;73.47;39.10;;;1.00;92.30;;;;;;5070163;28;20703;-72
2021/01/14 06:16:02;;;;;;;72.25;37.67;;;0.90;92.00;;;;;;5068304;28;20024;-72
2021/01/14 06:18:28;;;;;;;75.07;39.92;;;0.90;91.90;;;;;;5070537;28;20028;-73
2021/01/14 06:20:54;;;;;;;65.00;36.55;;;1.00;91.80;;;;;;5069127;28;20374;-72
2021/01/14 06:23:22;;;;;;;74.65;38.47;;;0.90;91.80;;;;;;5070484;28;20102;-72
2021/01/14 06:25:54;;;;;;;69.03;36.22;;;1.00;91.60;;;;;;5070284;28;20109;-72
2021/01/14 06:28:22;;;;;;;63.40;36.25;;;0.90;91.40;;;;;;5070398;28;20064;-73
2021/01/14 06:31:16;;;;;;;71.30;37.85;;;0.90;91.60;;;;;;5072343;28;20120;-73
2021/01/14 06:33:44;;;;;;;66.05;36.45;;;0.80;91.50;;;;;;5071069;28;20161;-73
2021/01/14 06:36:11;;;;;;;68.97;38.25;;;0.80;91.70;;;;;;5070530;28;20037;-73
2021/01/14 06:38:48;;;;;;;70.65;36.35;;;0.80;91.60;;;;;;5070920;28;20066;-73
2021/01/14 06:41:23;;;;;;;64.10;35.92;;;0.80;91.90;;;;;;5070049;28;20032;-74
2021/01/14 06:43:50;;;;;;;67.18;35.15;;;0.80;91.90;;;;;;5066578;28;20036;-74
2021/01/14 06:46:20;;;;;;;67.25;37.08;;;0.80;91.90;;;;;;5069887;28;20046;-73
2021/01/14 06:49:00;;;;;;;67.43;36.17;;;0.80;91.80;;;;;;5072250;28;20027;-74
2021/01/14 06:51:42;;;;;;;68.43;35.58;;;0.80;91.70;;;;;;5070691;28;20028;-73
2021/01/14 06:54:10;;;;;;;64.53;34.75;;;0.70;91.70;;;;;;5069979;28;20036;-72
2021/01/14 06:57:06;;;;;;;64.03;35.72;;;0.80;91.70;;;;;;5069066;28;20032;-74
2021/01/14 06:59:37;;;;;;;64.63;35.90;;;0.80;91.30;;;;;;5056504;28;20047;-73
2021/01/14 07:02:05;;;;;;;68.90;36.38;;;0.80;91.10;;;;;;5070067;28;20024;-72
2021/01/14 07:04:51;;;;;;;72.10;35.30;;;0.80;90.90;;;;;;5069434;28;20028;-72
2021/01/14 07:07:25;;;;;;;70.95;34.67;;;0.80;91.20;;;;;;5069022;28;20025;-73
2021/01/14 07:10:08;;;;;;;63.53;33.95;;;0.80;91.20;;;;;;5070651;28;20481;-74
2021/01/14 07:12:38;;;;;;;61.95;32.55;;;0.70;91.10;;;;;;5070867;28;20577;-73
2021/01/14 07:15:06;;;;;;;61.40;32.92;;;0.70;91.10;;;;;;5068954;28;20023;-73
2021/01/14 07:17:33;;;;;;;67.50;34.95;;;0.70;91.10;;;;;;5068384;28;20033;-73
2021/01/14 07:20:01;;;;;;;61.83;34.67;;;0.70;91.40;;;;;;5067425;28;20377;-74
2021/01/14 07:22:29;;;;;;;69.85;33.58;;;0.70;91.50;;;;;;5069197;28;20024;-75
2021/01/14 07:24:58;;;;;;;67.05;33.78;;;0.70;91.50;;;;;;5067901;28;20016;-74
2021/01/14 07:27:25;;;;;;;60.20;31.40;;;0.60;91.40;;;;;;5068752;28;20497;-73
2021/01/14 07:29:50;;;;;;;64.65;34.60;;;0.70;91.30;;;;;;5067387;28;20104;-73
2021/01/14 07:32:16;;;;;;;58.35;32.20;;;0.70;91.10;;;;;;5055362;28;20048;-72
2021/01/14 07:34:45;;;;;;;59.38;31.42;;;0.60;90.90;;;;;;5066731;28;20049;-73
2021/01/14 07:37:12;;;;;;;64.78;33.88;;;0.70;90.70;;;;;;5067599;28;20119;-74
2021/01/14 07:39:57;;;;;;;62.65;32.88;;;0.70;90.80;;;;;;5067336;28;20024;-74
2021/01/14 07:42:33;;;;;;;64.88;32.47;;;0.60;90.90;;;;;;5064726;28;20024;-74
2021/01/14 07:45:00;;;;;;;66.90;32.60;;;0.70;90.90;;;;;;5064584;28;20045;-74
2021/01/14 07:47:37;;;;;;;67.70;34.22;;;0.70;90.90;;;;;;5065302;28;20035;-74
2021/01/14 07:50:23;;;;;;;64.15;31.55;;;0.80;90.80;;;;;;5062746;28;20040;-73
2021/01/14 07:52:53;;;;;;;59.83;29.95;;;0.80;91.00;;;;;;5064568;28;20036;-72
2021/01/14 07:55:27;;;;;;;58.83;30.55;;;0.80;90.60;;;;;;5064925;28;20078;-72
2021/01/14 07:58:25;;;;;;;53.03;27.83;;;0.80;90.60;;;;;;5066633;28;20021;-72
2021/01/14 08:01:06;;;;;;;59.20;26.83;;;0.80;90.60;;;;;;5066569;28;20044;-73
2021/01/14 08:03:36;;;;;;;61.00;29.35;;;0.80;90.60;;;;;;5064809;28;20385;-71
2021/01/14 08:06:28;;;;;;;54.08;26.52;;;0.80;90.30;;;;;;5064167;28;20028;-73
2021/01/14 08:09:07;;;;;;;50.95;26.73;;;0.70;90.50;;;;;;5060445;28;20048;-72
2021/01/14 08:11:37;;;;;;;55.03;26.85;;;0.60;90.80;;;;;;5066338;28;20029;-73
2021/01/14 08:14:20;;;;;;;55.58;27.98;;;0.60;91.10;;;;;;5066336;28;20036;-73
2021/01/14 08:16:53;;;;;;;56.70;28.67;;;0.60;91.30;;;;;;5067146;28;20103;-72
2021/01/14 08:19:28;;;;;;;52.75;26.48;;;0.70;91.20;;;;;;5068514;28;20605;-72
2021/01/14 08:22:03;;;;;;;53.50;27.02;;;0.80;90.90;;;;;;5066581;28;20103;-73
2021/01/14 08:24:39;;;;;;;53.20;28.67;;;0.80;90.80;;;;;;5066562;28;20056;-73
2021/01/14 08:27:07;;;;;;;52.35;27.30;;;0.80;90.80;;;;;;5065946;28;20024;-73
2021/01/14 08:29:41;;;;;;;54.33;27.63;;;0.90;90.80;;;;;;5064729;28;20496;-73
2021/01/14 08:32:28;;;;;;;52.83;26.55;;;1.00;90.80;;;;;;5063232;28;20056;-73
2021/01/14 08:34:55;;;;;;;49.22;25.35;;;1.00;90.50;;;;;;5064740;28;20032;-72
2021/01/14 08:37:34;;;;;;;46.65;24.55;;;1.00;90.70;;;;;;5069518;28;20536;-72
2021/01/14 08:40:03;;;;;;;45.58;24.20;;;1.00;90.60;;;;;;5070143;28;20123;-72
2021/01/14 08:42:31;;;;;;;50.75;26.55;;;0.90;90.50;;;;;;5061465;28;20437;-74
2021/01/14 08:45:27;;;;;;;47.78;23.77;;;0.90;90.80;;;;;;5069885;28;20031;-73
2021/01/14 08:47:54;;;;;;;50.08;25.08;;;0.80;90.40;;;;;;5055399;28;20428;-70
2021/01/14 08:50:39;;;;;;;43.08;24.13;;;0.80;90.50;;;;;;5067360;28;20028;-70
2021/01/14 08:53:12;;;;;;;49.35;25.50;;;0.70;90.60;;;;;;5067982;28;20060;-71
2021/01/14 08:55:39;;;;;;;47.22;24.25;;;0.80;90.90;;;;;;5070662;28;20475;-70
2021/01/14 08:58:07;;;;;;;50.25;23.65;;;0.90;90.50;;;;;;5070695;28;20028;-70
2021/01/14 09:00:39;;;;;;;45.97;25.70;;;0.90;90.50;;;;;;5069648;28;20087;-71
2021/01/14 09:03:05;;;;;;;46.53;25.63;;;1.00;90.50;;;;;;5068232;28;20094;-72
2021/01/14 09:05:31;;;;;;;40.88;23.65;;;1.00;90.60;;;;;;5070139;28;20024;-70
2021/01/14 09:08:04;;;;;;;38.00;20.70;;;1.00;90.40;;;;;;5069615;28;20023;-71
2021/01/14 09:10:49;;;;;;;38.33;21.17;;;0.80;90.20;;;;;;5067903;28;20432;-71
2021/01/14 09:13:26;;;;;;;41.58;22.13;;;0.80;90.40;;;;;;5069344;28;20059;-73
2021/01/14 09:15:54;;;;;;;42.97;22.60;;;0.80;90.60;;;;;;5071183;28;20105;-73
2021/01/14 09:18:41;;;;;;;46.85;24.25;;;0.80;90.70;;;;;;5070828;28;20028;-72
2021/01/14 09:21:08;;;;;;;41.50;23.27;;;0.80;90.70;;;;;;5066818;28;20119;-71
2021/01/14 09:23:35;;;;;;;42.35;23.08;;;0.80;90.80;;;;;;5068497;28;20028;-72
2021/01/14 09:26:13;;;;;;;45.25;23.70;;;0.80;90.60;;;;;;5068235;28;20116;-72
2021/01/14 09:28:39;;;;;;;38.42;20.98;;;0.70;90.80;;;;;;5069330;28;20039;-73
2021/01/14 09:31:07;;;;;;;39.15;21.02;;;0.70;90.80;;;;;;5063977;28;20037;-72
2021/01/14 09:33:41;;;;;;;37.95;21.15;;;0.80;90.90;;;;;;5069238;28;20501;-73
2021/01/14 09:36:10;;;;;;;42.80;22.50;;;0.80;90.50;;;;;;5064919;28;20024;-76
2021/01/14 09:38:41;;;;;;;42.10;22.83;;;0.80;90.70;;;;;;5070111;28;20101;-73
2021/01/14 09:41:07;;;;;;;42.50;22.13;;;0.80;90.70;;;;;;5067983;28;20290;-71
2021/01/14 09:43:38;;;;;;;44.13;23.95;;;0.80;90.60;;;;;;5064996;28;20477;-71
2021/01/14 09:46:04;;;;;;;44.88;23.98;;;0.80;90.60;;;;;;5067787;28;20036;-74
2021/01/14 09:48:32;;;;;;;44.63;22.80;;;0.80;90.50;;;;;;5069262;28;20129;-71
2021/01/14 09:50:58;;;;;;;45.10;24.05;;;0.80;90.60;;;;;;5066433;28;20385;-74
2021/01/14 09:53:24;;;;;;;45.33;23.98;;;0.80;90.30;;;;;;5065616;28;20035;-73
2021/01/14 09:55:50;;;;;;;41.72;22.65;;;0.80;90.80;;;;;;5063126;28;20036;-73
2021/01/14 09:58:18;;;;;;;47.00;23.90;;;0.80;90.50;;;;;;5067858;28;20452;-71
2021/01/14 10:00:47;;;;;;;44.08;23.20;;;0.90;90.20;;;;;;5067974;28;20129;-72
2021/01/14 10:03:15;;;;;;;44.20;23.30;;;1.00;90.40;;;;;;5068840;28;20039;-74
2021/01/14 10:05:41;;;;;;;39.45;20.58;;;1.10;90.20;;;;;;5083959;28;20032;-73
2021/01/14 10:08:18;;;;;;;38.50;22.80;;;1.00;90.00;;;;;;5068207;28;20031;-72
2021/01/14 10:10:44;;;;;;;42.92;23.20;;;1.10;90.00;;;;;;5065456;28;20473;-73
2021/01/14 10:13:14;;;;;;;36.45;21.17;;;1.10;90.10;;;;;;5068523;28;20040;-74
2021/01/14 10:15:41;;;;;;;39.78;22.35;;;1.20;89.60;;;;;;5068542;28;20034;-73
2021/01/14 10:18:07;;;;;;;37.70;21.10;;;1.20;89.50;;;;;;5068317;28;20103;-73
2021/01/14 10:20:33;;;;;;;39.95;20.95;;;1.30;88.80;;;;;;5067441;28;20036;-73
2021/01/14 10:22:59;;;;;;;36.55;20.40;;;1.30;88.00;;;;;;5068878;28;20038;-73
2021/01/14 10:25:25;;;;;;;36.30;20.42;;;1.30;87.60;;;;;;5068501;28;20111;-73
2021/01/14 10:28:02;;;;;;;38.78;20.30;;;1.30;87.80;;;;;;5070503;28;20434;-74
2021/01/14 10:30:29;;;;;;;38.08;20.65;;;1.10;88.70;;;;;;5069110;28;20048;-72
2021/01/14 10:33:05;;;;;;;36.80;19.38;;;1.00;89.50;;;;;;5063963;28;20049;-73
2021/01/14 10:35:33;;;;;;;35.13;19.05;;;0.90;89.10;;;;;;5063460;28;20031;-74
2021/01/14 10:38:03;;;;;;;35.58;18.63;;;1.00;89.80;;;;;;5062102;28;20037;-73
2021/01/14 10:40:36;;;;;;;33.53;18.75;;;1.00;89.00;;;;;;5061421;28;20029;-73
2021/01/14 10:43:03;;;;;;;36.80;18.58;;;1.00;89.50;;;;;;5068535;28;20104;-71
2021/01/14 10:45:31;;;;;;;29.20;18.05;;;1.00;88.90;;;;;;5065233;28;20432;-74
2021/01/14 10:48:13;;;;;;;34.40;18.90;;;1.10;88.80;;;;;;5064024;28;20040;-73
2021/01/14 10:50:46;;;;;;;35.50;18.85;;;1.10;89.60;;;;;;5062580;28;20681;-71
2021/01/14 10:53:22;;;;;;;33.78;19.25;;;1.10;88.70;;;;;;5060975;28;20452;-73
2021/01/14 10:55:59;;;;;;;31.42;17.73;;;1.10;89.00;;;;;;5061914;28;20040;-73
2021/01/14 10:58:24;;;;;;;36.80;18.98;;;1.00;89.00;;;;;;5060701;28;20017;-72
2021/01/14 11:00:50;;;;;;;31.00;16.30;;;1.10;89.10;;;;;;5064920;28;20039;-71
2021/01/14 11:03:22;;;;;;;30.25;17.38;;;1.10;89.40;;;;;;5062985;28;20052;-74
2021/01/14 11:05:52;;;;;;;31.23;18.48;;;1.10;89.00;;;;;;5063801;28;20017;-74
2021/01/14 11:08:19;;;;;;;31.92;17.23;;;1.20;88.50;;;;;;5064300;28;20752;-73
2021/01/14 11:11:02;;;;;;;35.38;19.98;;;1.20;88.70;;;;;;5066355;28;20497;-74
2021/01/14 11:13:49;;;;;;;31.05;18.23;;;1.10;87.80;;;;;;5066210;28;20040;-73
2021/01/14 11:16:17;;;;;;;31.20;19.10;;;1.10;88.60;;;;;;5067427;28;20020;-71
2021/01/14 11:18:48;;;;;;;30.92;18.42;;;1.00;88.50;;;;;;5067901;28;20031;-72
2021/01/14 11:21:16;;;;;;;32.75;19.52;;;1.00;88.40;;;;;;5068134;28;20556;-71
2021/01/14 11:23:42;;;;;;;32.45;19.63;;;1.00;88.40;;;;;;5067759;28;20028;-72
2021/01/14 11:26:09;;;;;;;31.83;18.88;;;1.00;87.80;;;;;;5066477;28;20024;-70
2021/01/14 11:28:38;;;;;;;33.97;19.48;;;1.00;87.60;;;;;;5076053;28;20124;-73
2021/01/14 11:31:05;;;;;;;31.65;18.60;;;1.00;88.20;;;;;;5065896;28;20020;-71
2021/01/14 11:33:31;;;;;;;29.00;18.25;;;0.90;88.10;;;;;;5066942;28;20045;-71
2021/01/14 11:35:57;;;;;;;33.75;19.67;;;0.90;87.60;;;;;;5067420;28;20032;-71
2021/01/14 11:38:23;;;;;;;33.08;19.35;;;0.70;88.20;;;;;;5064897;28;20035;-73
2021/01/14 11:40:50;;;;;;;29.88;19.52;;;0.70;89.40;;;;;;5066814;28;20029;-71
2021/01/14 11:43:16;;;;;;;34.40;20.45;;;0.70;89.20;;;;;;5067814;28;20084;-71
2021/01/14 11:45:44;;;;;;;30.92;18.13;;;0.60;88.80;;;;;;5068338;28;20034;-73
2021/01/14 11:48:10;;;;;;;31.13;18.55;;;0.60;89.40;;;;;;5083448;28;20111;-73
2021/01/14 11:50:36;;;;;;;26.10;17.27;;;0.60;88.30;;;;;;5065793;28;20116;-71
2021/01/14 11:53:02;;;;;;;29.63;17.73;;;0.60;87.90;;;;;;5065637;28;20398;-72
2021/01/14 11:55:27;;;;;;;34.25;21.05;;;0.50;87.40;;;;;;5066681;28;20099;-70
2021/01/14 11:57:53;;;;;;;29.38;17.13;;;0.40;87.70;;;;;;5068635;28;20434;-72
2021/01/14 12:00:19;;;;;;;35.50;21.17;;;0.40;86.20;;;;;;5066592;28;20124;-72
2021/01/14 12:02:45;;;;;;;29.23;16.92;;;0.40;86.60;;;;;;5065046;28;20037;-72
2021/01/14 12:05:11;;;;;;;30.75;17.98;;;0.40;85.80;;;;;;5063627;28;20028;-72
2021/01/14 12:07:38;;;;;;;34.72;21.98;;;0.40;85.90;;;;;;5062111;28;20021;-72
2021/01/14 12:10:04;;;;;;;32.95;20.52;;;0.40;86.40;;;;;;5069702;28;20119;-71
2021/01/14 12:12:30;;;;;;;37.42;22.25;;;0.30;86.60;;;;;;5070029;28;20062;-72
2021/01/14 12:14:57;;;;;;;34.97;21.27;;;0.30;87.50;;;;;;5070355;28;20863;-72
2021/01/14 12:17:23;;;;;;;36.22;21.35;;;0.30;87.70;;;;;;5062953;28;20028;-72
2021/01/14 12:19:49;;;;;;;32.45;21.33;;;0.30;87.70;;;;;;5066265;28;20020;-73
2021/01/14 12:22:14;;;;;;;35.20;23.10;;;0.30;87.10;;;;;;5063839;28;20031;-73
2021/01/14 12:24:40;;;;;;;38.88;22.20;;;0.20;87.10;;;;;;5068099;28;20028;-72
2021/01/14 12:27:06;;;;;;;36.63;21.75;;;0.20;87.50;;;;;;5065492;28;20028;-73
2021/01/14 12:29:32;;;;;;;37.97;23.35;;;0.30;87.70;;;;;;5067225;28;20028;-72
2021/01/14 12:31:57;;;;;;;39.72;24.30;;;0.20;88.00;;;;;;5068339;28;20045;-72
2021/01/14 12:34:23;;;;;;;36.08;21.73;;;0.20;88.10;;;;;;5068896;28;20035;-72
2021/01/14 12:36:49;;;;;;;32.65;20.98;;;0.10;87.70;;;;;;5070442;28;20073;-71
2021/01/14 12:39:15;;;;;;;39.83;24.30;;;0.10;87.70;;;;;;5065563;28;20385;-72
2021/01/14 12:41:41;;;;;;;36.20;22.48;;;0.00;87.70;;;;;;5064802;28;20112;-73
2021/01/14 12:44:07;;;;;;;36.50;21.15;;;0.00;88.20;;;;;;5066630;28;20065;-72
2021/01/14 12:46:43;;;;;;;39.65;23.77;;;-0.10;86.70;;;;;;5067677;28;20445;-72
2021/01/14 12:49:10;;;;;;;38.70;23.23;;;-0.20;86.90;;;;;;5067376;28;20493;-72
2021/01/14 12:51:37;;;;;;;37.45;22.50;;;-0.20;86.90;;;;;;5065610;28;20032;-72